sensor_id;sensor_type;location;lat;lon;timestamp;temperature;humidity
68358;DHT22;55276;53.260;50.222;2022-07-17T00:00:21;24.30;49.90
68358;DHT22;55276;53.260;50.222;2022-07-17T00:02:47;24.20;49.90
68358;DHT22;55276;53.260;50.222;2022-07-17T00:05:14;24.10;49.90
68358;DHT22;55276;53.260;50.222;2022-07-17T00:07:41;24.10;49.80
68358;DHT22;55276;53.260;50.222;2022-07-17T00:10:07;24.10;49.80
68358;DHT22;55276;53.260;50.222;2022-07-17T00:12:35;24.10;50.00
68358;DHT22;55276;53.260;50.222;2022-07-17T00:15:01;24.10;50.10
68358;DHT22;55276;53.260;50.222;2022-07-17T00:17:27;24.10;50.10
68358;DHT22;55276;53.260;50.222;2022-07-17T00:19:53;24.10;50.00
68358;DHT22;55276;53.260;50.222;2022-07-17T00:22:19;24.10;49.90
68358;DHT22;55276;53.260;50.222;2022-07-17T00:24:46;24.20;49.60
68358;DHT22;55276;53.260;50.222;2022-07-17T00:27:12;24.20;49.30
68358;DHT22;55276;53.260;50.222;2022-07-17T00:29:38;24.20;48.80
68358;DHT22;55276;53.260;50.222;2022-07-17T00:32:04;24.20;48.60
68358;DHT22;55276;53.260;50.222;2022-07-17T00:34:31;24.20;48.40
68358;DHT22;55276;53.260;50.222;2022-07-17T00:36:57;24.20;48.40
68358;DHT22;55276;53.260;50.222;2022-07-17T00:39:23;24.10;48.50
68358;DHT22;55276;53.260;50.222;2022-07-17T00:41:49;24.20;48.50
68358;DHT22;55276;53.260;50.222;2022-07-17T00:44:16;24.20;48.60
68358;DHT22;55276;53.260;50.222;2022-07-17T00:46:42;24.20;48.60
68358;DHT22;55276;53.260;50.222;2022-07-17T00:49:08;24.20;48.60
68358;DHT22;55276;53.260;50.222;2022-07-17T00:51:35;24.30;48.70
68358;DHT22;55276;53.260;50.222;2022-07-17T00:54:02;24.30;48.60
68358;DHT22;55276;53.260;50.222;2022-07-17T00:56:28;24.30;48.70
68358;DHT22;55276;53.260;50.222;2022-07-17T00:58:55;24.40;48.90
68358;DHT22;55276;53.260;50.222;2022-07-17T01:01:21;24.30;49.20
68358;DHT22;55276;53.260;50.222;2022-07-17T01:03:48;24.30;49.50
68358;DHT22;55276;53.260;50.222;2022-07-17T01:06:14;24.30;49.80
68358;DHT22;55276;53.260;50.222;2022-07-17T01:08:40;24.30;50.20
68358;DHT22;55276;53.260;50.222;2022-07-17T01:11:08;24.30;50.50
68358;DHT22;55276;53.260;50.222;2022-07-17T01:13:38;24.20;50.60
68358;DHT22;55276;53.260;50.222;2022-07-17T01:16:04;24.20;50.80
68358;DHT22;55276;53.260;50.222;2022-07-17T01:18:30;24.20;50.90
68358;DHT22;55276;53.260;50.222;2022-07-17T01:21:04;24.10;50.90
68358;DHT22;55276;53.260;50.222;2022-07-17T01:23:30;24.10;51.10
68358;DHT22;55276;53.260;50.222;2022-07-17T01:25:56;24.10;51.20
68358;DHT22;55276;53.260;50.222;2022-07-17T01:28:22;24.10;51.30
68358;DHT22;55276;53.260;50.222;2022-07-17T01:30:50;24.00;51.40
68358;DHT22;55276;53.260;50.222;2022-07-17T01:33:17;24.00;51.50
68358;DHT22;55276;53.260;50.222;2022-07-17T01:35:44;24.00;51.70
68358;DHT22;55276;53.260;50.222;2022-07-17T01:38:10;24.10;51.70
68358;DHT22;55276;53.260;50.222;2022-07-17T01:40:36;24.20;51.60
68358;DHT22;55276;53.260;50.222;2022-07-17T01:43:03;24.30;51.60
68358;DHT22;55276;53.260;50.222;2022-07-17T01:45:29;24.40;51.50
68358;DHT22;55276;53.260;50.222;2022-07-17T01:47:55;24.50;51.50
68358;DHT22;55276;53.260;50.222;2022-07-17T01:50:21;24.50;51.50
68358;DHT22;55276;53.260;50.222;2022-07-17T01:52:47;24.40;51.90
68358;DHT22;55276;53.260;50.222;2022-07-17T01:55:15;24.40;52.30
68358;DHT22;55276;53.260;50.222;2022-07-17T01:57:42;24.30;52.50
68358;DHT22;55276;53.260;50.222;2022-07-17T02:00:12;24.40;52.60
68358;DHT22;55276;53.260;50.222;2022-07-17T02:02:40;24.40;52.80
68358;DHT22;55276;53.260;50.222;2022-07-17T02:05:06;24.40;52.90
68358;DHT22;55276;53.260;50.222;2022-07-17T02:07:34;24.40;52.90
68358;DHT22;55276;53.260;50.222;2022-07-17T02:10:03;24.40;53.00
68358;DHT22;55276;53.260;50.222;2022-07-17T02:12:33;24.40;53.10
68358;DHT22;55276;53.260;50.222;2022-07-17T02:14:59;24.40;53.20
68358;DHT22;55276;53.260;50.222;2022-07-17T02:17:25;24.40;53.40
68358;DHT22;55276;53.260;50.222;2022-07-17T02:19:51;24.30;53.60
68358;DHT22;55276;53.260;50.222;2022-07-17T02:22:17;24.20;53.60
68358;DHT22;55276;53.260;50.222;2022-07-17T02:24:43;24.10;53.70
68358;DHT22;55276;53.260;50.222;2022-07-17T02:27:09;24.00;53.80
68358;DHT22;55276;53.260;50.222;2022-07-17T02:29:35;23.90;54.00
68358;DHT22;55276;53.260;50.222;2022-07-17T02:32:01;23.90;54.10
68358;DHT22;55276;53.260;50.222;2022-07-17T02:34:27;23.90;54.20
68358;DHT22;55276;53.260;50.222;2022-07-17T02:36:53;23.90;54.10
68358;DHT22;55276;53.260;50.222;2022-07-17T02:39:19;23.90;54.30
68358;DHT22;55276;53.260;50.222;2022-07-17T02:41:46;23.90;54.40
68358;DHT22;55276;53.260;50.222;2022-07-17T02:44:12;23.90;54.60
68358;DHT22;55276;53.260;50.222;2022-07-17T02:46:38;23.90;54.70
68358;DHT22;55276;53.260;50.222;2022-07-17T02:49:04;23.90;54.80
68358;DHT22;55276;53.260;50.222;2022-07-17T02:51:30;23.90;54.90
68358;DHT22;55276;53.260;50.222;2022-07-17T02:53:56;24.00;54.70
68358;DHT22;55276;53.260;50.222;2022-07-17T02:56:22;24.30;54.40
68358;DHT22;55276;53.260;50.222;2022-07-17T02:58:48;24.40;54.30
68358;DHT22;55276;53.260;50.222;2022-07-17T03:01:14;24.30;54.30
68358;DHT22;55276;53.260;50.222;2022-07-17T03:03:40;24.10;54.50
68358;DHT22;55276;53.260;50.222;2022-07-17T03:06:07;23.90;55.00
68358;DHT22;55276;53.260;50.222;2022-07-17T03:08:34;23.90;55.20
68358;DHT22;55276;53.260;50.222;2022-07-17T03:11:00;23.80;55.60
68358;DHT22;55276;53.260;50.222;2022-07-17T03:13:28;23.80;55.70
68358;DHT22;55276;53.260;50.222;2022-07-17T03:15:54;23.90;55.70
68358;DHT22;55276;53.260;50.222;2022-07-17T03:18:20;24.00;55.80
68358;DHT22;55276;53.260;50.222;2022-07-17T03:20:46;24.10;56.10
68358;DHT22;55276;53.260;50.222;2022-07-17T03:23:12;24.10;56.40
68358;DHT22;55276;53.260;50.222;2022-07-17T03:25:39;24.10;56.90
68358;DHT22;55276;53.260;50.222;2022-07-17T03:28:05;24.00;57.40
68358;DHT22;55276;53.260;50.222;2022-07-17T03:30:31;23.90;57.80
68358;DHT22;55276;53.260;50.222;2022-07-17T03:32:57;23.90;58.20
68358;DHT22;55276;53.260;50.222;2022-07-17T03:35:23;23.70;58.70
68358;DHT22;55276;53.260;50.222;2022-07-17T03:37:49;23.60;59.30
68358;DHT22;55276;53.260;50.222;2022-07-17T03:40:15;23.50;59.70
68358;DHT22;55276;53.260;50.222;2022-07-17T03:42:41;23.50;59.70
68358;DHT22;55276;53.260;50.222;2022-07-17T03:45:08;23.50;59.60
68358;DHT22;55276;53.260;50.222;2022-07-17T03:47:34;23.40;59.70
68358;DHT22;55276;53.260;50.222;2022-07-17T03:50:00;23.30;60.00
68358;DHT22;55276;53.260;50.222;2022-07-17T03:52:26;23.30;60.20
68358;DHT22;55276;53.260;50.222;2022-07-17T03:54:52;23.40;60.20
68358;DHT22;55276;53.260;50.222;2022-07-17T03:57:18;23.40;60.20
68358;DHT22;55276;53.260;50.222;2022-07-17T03:59:45;23.50;60.20
68358;DHT22;55276;53.260;50.222;2022-07-17T04:02:10;23.60;60.00
68358;DHT22;55276;53.260;50.222;2022-07-17T04:04:37;23.80;59.80
68358;DHT22;55276;53.260;50.222;2022-07-17T04:07:03;23.90;59.60
68358;DHT22;55276;53.260;50.222;2022-07-17T04:09:29;24.00;59.20
68358;DHT22;55276;53.260;50.222;2022-07-17T04:11:55;24.30;58.80
68358;DHT22;55276;53.260;50.222;2022-07-17T04:14:21;24.40;58.00
68358;DHT22;55276;53.260;50.222;2022-07-17T04:16:47;24.60;57.30
68358;DHT22;55276;53.260;50.222;2022-07-17T04:19:13;24.80;56.80
68358;DHT22;55276;53.260;50.222;2022-07-17T04:21:39;25.10;56.30
68358;DHT22;55276;53.260;50.222;2022-07-17T04:24:06;25.40;55.60
68358;DHT22;55276;53.260;50.222;2022-07-17T04:26:32;25.60;55.00
68358;DHT22;55276;53.260;50.222;2022-07-17T04:28:58;26.00;54.30
68358;DHT22;55276;53.260;50.222;2022-07-17T04:31:24;26.40;53.20
68358;DHT22;55276;53.260;50.222;2022-07-17T04:33:50;26.90;52.20
68358;DHT22;55276;53.260;50.222;2022-07-17T04:36:18;27.30;51.30
68358;DHT22;55276;53.260;50.222;2022-07-17T04:38:44;27.80;50.40
68358;DHT22;55276;53.260;50.222;2022-07-17T04:41:10;28.00;49.40
68358;DHT22;55276;53.260;50.222;2022-07-17T04:43:36;28.10;49.10
68358;DHT22;55276;53.260;50.222;2022-07-17T04:46:02;28.10;48.70
68358;DHT22;55276;53.260;50.222;2022-07-17T04:48:28;28.20;48.50
68358;DHT22;55276;53.260;50.222;2022-07-17T04:50:54;28.30;48.40
68358;DHT22;55276;53.260;50.222;2022-07-17T04:53:20;28.40;48.30
68358;DHT22;55276;53.260;50.222;2022-07-17T04:55:46;28.40;48.30
68358;DHT22;55276;53.260;50.222;2022-07-17T04:58:12;28.50;48.30
68358;DHT22;55276;53.260;50.222;2022-07-17T05:00:38;28.70;48.00
68358;DHT22;55276;53.260;50.222;2022-07-17T05:03:04;28.90;47.70
68358;DHT22;55276;53.260;50.222;2022-07-17T05:05:30;28.70;47.90
68358;DHT22;55276;53.260;50.222;2022-07-17T05:07:56;28.40;48.00
68358;DHT22;55276;53.260;50.222;2022-07-17T05:10:23;28.40;48.20
68358;DHT22;55276;53.260;50.222;2022-07-17T05:12:50;28.50;48.20
68358;DHT22;55276;53.260;50.222;2022-07-17T05:15:16;28.70;48.10
68358;DHT22;55276;53.260;50.222;2022-07-17T05:17:42;28.80;47.80
68358;DHT22;55276;53.260;50.222;2022-07-17T05:20:09;28.80;47.80
68358;DHT22;55276;53.260;50.222;2022-07-17T05:22:35;28.90;47.60
68358;DHT22;55276;53.260;50.222;2022-07-17T05:25:01;29.10;47.10
68358;DHT22;55276;53.260;50.222;2022-07-17T05:27:27;29.20;46.90
68358;DHT22;55276;53.260;50.222;2022-07-17T05:29:54;29.30;46.40
68358;DHT22;55276;53.260;50.222;2022-07-17T05:32:20;28.80;46.70
68358;DHT22;55276;53.260;50.222;2022-07-17T05:34:47;28.40;47.70
68358;DHT22;55276;53.260;50.222;2022-07-17T05:37:13;28.60;47.60
68358;DHT22;55276;53.260;50.222;2022-07-17T05:39:39;28.90;47.10
68358;DHT22;55276;53.260;50.222;2022-07-17T05:42:05;29.10;46.90
68358;DHT22;55276;53.260;50.222;2022-07-17T05:44:31;29.40;46.30
68358;DHT22;55276;53.260;50.222;2022-07-17T05:46:57;29.70;45.60
68358;DHT22;55276;53.260;50.222;2022-07-17T05:49:23;29.50;45.20
68358;DHT22;55276;53.260;50.222;2022-07-17T05:51:49;29.20;45.70
68358;DHT22;55276;53.260;50.222;2022-07-17T05:54:15;29.30;46.00
68358;DHT22;55276;53.260;50.222;2022-07-17T05:56:42;29.50;45.80
68358;DHT22;55276;53.260;50.222;2022-07-17T05:59:08;29.30;45.60
68358;DHT22;55276;53.260;50.222;2022-07-17T06:01:34;29.30;45.80
68358;DHT22;55276;53.260;50.222;2022-07-17T06:04:00;29.70;45.30
68358;DHT22;55276;53.260;50.222;2022-07-17T06:06:26;30.00;44.70
68358;DHT22;55276;53.260;50.222;2022-07-17T06:08:52;30.00;44.20
68358;DHT22;55276;53.260;50.222;2022-07-17T06:11:19;29.90;44.20
68358;DHT22;55276;53.260;50.222;2022-07-17T06:13:46;30.10;44.10
68358;DHT22;55276;53.260;50.222;2022-07-17T06:16:12;30.40;43.60
68358;DHT22;55276;53.260;50.222;2022-07-17T06:18:39;30.70;43.20
68358;DHT22;55276;53.260;50.222;2022-07-17T06:21:05;30.90;43.00
68358;DHT22;55276;53.260;50.222;2022-07-17T06:23:31;31.20;42.30
68358;DHT22;55276;53.260;50.222;2022-07-17T06:25:57;31.20;41.70
68358;DHT22;55276;53.260;50.222;2022-07-17T06:28:23;31.20;41.40
68358;DHT22;55276;53.260;50.222;2022-07-17T06:30:49;31.20;41.40
68358;DHT22;55276;53.260;50.222;2022-07-17T06:33:16;31.30;41.30
68358;DHT22;55276;53.260;50.222;2022-07-17T06:35:42;31.40;41.20
68358;DHT22;55276;53.260;50.222;2022-07-17T06:38:08;31.60;41.10
68358;DHT22;55276;53.260;50.222;2022-07-17T06:40:36;31.30;41.10
68358;DHT22;55276;53.260;50.222;2022-07-17T06:43:04;31.10;41.50
68358;DHT22;55276;53.260;50.222;2022-07-17T06:45:30;31.30;41.00
68358;DHT22;55276;53.260;50.222;2022-07-17T06:47:56;31.40;40.50
68358;DHT22;55276;53.260;50.222;2022-07-17T06:50:22;31.60;40.50
68358;DHT22;55276;53.260;50.222;2022-07-17T06:52:49;31.80;40.10
68358;DHT22;55276;53.260;50.222;2022-07-17T06:55:15;31.90;40.10
68358;DHT22;55276;53.260;50.222;2022-07-17T06:57:41;31.90;39.50
68358;DHT22;55276;53.260;50.222;2022-07-17T07:00:09;31.80;39.60
68358;DHT22;55276;53.260;50.222;2022-07-17T07:02:37;31.70;39.90
68358;DHT22;55276;53.260;50.222;2022-07-17T07:05:03;31.90;39.70
68358;DHT22;55276;53.260;50.222;2022-07-17T07:07:30;31.90;39.40
68358;DHT22;55276;53.260;50.222;2022-07-17T07:09:56;31.90;39.50
68358;DHT22;55276;53.260;50.222;2022-07-17T07:12:33;31.90;39.40
68358;DHT22;55276;53.260;50.222;2022-07-17T07:15:01;32.00;39.60
68358;DHT22;55276;53.260;50.222;2022-07-17T07:17:27;32.10;39.40
68358;DHT22;55276;53.260;50.222;2022-07-17T07:19:53;32.10;39.40
68358;DHT22;55276;53.260;50.222;2022-07-17T07:22:19;32.20;39.30
68358;DHT22;55276;53.260;50.222;2022-07-17T07:24:45;32.20;39.20
68358;DHT22;55276;53.260;50.222;2022-07-17T07:27:11;32.30;39.00
68358;DHT22;55276;53.260;50.222;2022-07-17T07:29:37;32.50;38.70
68358;DHT22;55276;53.260;50.222;2022-07-17T07:32:03;32.40;38.80
68358;DHT22;55276;53.260;50.222;2022-07-17T07:34:29;32.40;38.60
68358;DHT22;55276;53.260;50.222;2022-07-17T07:36:55;32.50;38.50
68358;DHT22;55276;53.260;50.222;2022-07-17T07:39:22;32.60;38.30
68358;DHT22;55276;53.260;50.222;2022-07-17T07:41:48;32.70;38.20
68358;DHT22;55276;53.260;50.222;2022-07-17T07:44:14;32.70;38.30
68358;DHT22;55276;53.260;50.222;2022-07-17T07:46:40;32.60;38.40
68358;DHT22;55276;53.260;50.222;2022-07-17T07:49:06;32.70;38.00
68358;DHT22;55276;53.260;50.222;2022-07-17T07:51:32;32.70;37.70
68358;DHT22;55276;53.260;50.222;2022-07-17T07:53:58;32.60;37.30
68358;DHT22;55276;53.260;50.222;2022-07-17T07:56:24;32.50;37.30
68358;DHT22;55276;53.260;50.222;2022-07-17T07:58:50;32.40;37.40
68358;DHT22;55276;53.260;50.222;2022-07-17T08:01:16;32.20;38.00
68358;DHT22;55276;53.260;50.222;2022-07-17T08:03:42;32.40;38.00
68358;DHT22;55276;53.260;50.222;2022-07-17T08:06:09;32.40;38.00
68358;DHT22;55276;53.260;50.222;2022-07-17T08:08:35;32.30;38.10
68358;DHT22;55276;53.260;50.222;2022-07-17T08:11:01;32.10;38.40
68358;DHT22;55276;53.260;50.222;2022-07-17T08:13:39;32.30;38.20
68358;DHT22;55276;53.260;50.222;2022-07-17T08:16:07;32.40;38.00
68358;DHT22;55276;53.260;50.222;2022-07-17T08:18:33;32.30;38.00
68358;DHT22;55276;53.260;50.222;2022-07-17T08:21:00;32.30;38.00
68358;DHT22;55276;53.260;50.222;2022-07-17T08:23:26;32.30;37.70
68358;DHT22;55276;53.260;50.222;2022-07-17T08:25:53;32.30;38.00
68358;DHT22;55276;53.260;50.222;2022-07-17T08:28:19;32.30;38.20
68358;DHT22;55276;53.260;50.222;2022-07-17T08:30:45;31.90;38.70
68358;DHT22;55276;53.260;50.222;2022-07-17T08:33:11;31.90;38.90
68358;DHT22;55276;53.260;50.222;2022-07-17T08:35:37;32.00;38.90
68358;DHT22;55276;53.260;50.222;2022-07-17T08:38:04;32.30;38.80
68358;DHT22;55276;53.260;50.222;2022-07-17T08:40:32;32.40;37.30
68358;DHT22;55276;53.260;50.222;2022-07-17T08:42:59;31.90;37.80
68358;DHT22;55276;53.260;50.222;2022-07-17T08:45:26;31.90;38.20
68358;DHT22;55276;53.260;50.222;2022-07-17T08:47:54;32.30;37.70
68358;DHT22;55276;53.260;50.222;2022-07-17T08:50:24;32.80;37.00
68358;DHT22;55276;53.260;50.222;2022-07-17T08:52:51;32.70;37.60
68358;DHT22;55276;53.260;50.222;2022-07-17T08:55:17;32.70;36.80
68358;DHT22;55276;53.260;50.222;2022-07-17T08:57:44;32.90;36.60
68358;DHT22;55276;53.260;50.222;2022-07-17T09:00:14;33.20;36.00
68358;DHT22;55276;53.260;50.222;2022-07-17T09:03:05;33.30;35.60
68358;DHT22;55276;53.260;50.222;2022-07-17T09:05:37;33.20;35.00
68358;DHT22;55276;53.260;50.222;2022-07-17T09:08:05;33.10;35.20
68358;DHT22;55276;53.260;50.222;2022-07-17T09:10:42;33.20;35.20
68358;DHT22;55276;53.260;50.222;2022-07-17T09:16:07;33.30;34.90
68358;DHT22;55276;53.260;50.222;2022-07-17T09:18:50;33.30;34.80
68358;DHT22;55276;53.260;50.222;2022-07-17T09:21:24;33.40;34.60
68358;DHT22;55276;53.260;50.222;2022-07-17T09:24:07;33.60;34.30
68358;DHT22;55276;53.260;50.222;2022-07-17T09:26:34;33.10;34.40
68358;DHT22;55276;53.260;50.222;2022-07-17T09:29:02;32.90;34.80
68358;DHT22;55276;53.260;50.222;2022-07-17T09:31:30;32.80;34.80
68358;DHT22;55276;53.260;50.222;2022-07-17T09:33:57;32.80;34.60
68358;DHT22;55276;53.260;50.222;2022-07-17T09:36:23;32.90;34.40
68358;DHT22;55276;53.260;50.222;2022-07-17T09:38:53;33.20;33.90
68358;DHT22;55276;53.260;50.222;2022-07-17T09:41:22;33.50;33.50
68358;DHT22;55276;53.260;50.222;2022-07-17T09:43:54;33.90;33.10
68358;DHT22;55276;53.260;50.222;2022-07-17T09:48:49;34.10;33.20
68358;DHT22;55276;53.260;50.222;2022-07-17T09:51:38;34.20;33.00
68358;DHT22;55276;53.260;50.222;2022-07-17T09:54:05;33.90;33.30
68358;DHT22;55276;53.260;50.222;2022-07-17T09:56:34;33.70;33.20
68358;DHT22;55276;53.260;50.222;2022-07-17T09:59:06;33.40;33.70
68358;DHT22;55276;53.260;50.222;2022-07-17T10:01:37;33.20;34.10
68358;DHT22;55276;53.260;50.222;2022-07-17T10:04:05;33.00;34.80
68358;DHT22;55276;53.260;50.222;2022-07-17T10:06:31;32.70;35.50
68358;DHT22;55276;53.260;50.222;2022-07-17T10:08:58;32.50;35.70
68358;DHT22;55276;53.260;50.222;2022-07-17T10:11:28;32.40;35.70
68358;DHT22;55276;53.260;50.222;2022-07-17T10:13:57;32.30;35.30
68358;DHT22;55276;53.260;50.222;2022-07-17T10:16:30;32.40;35.20
68358;DHT22;55276;53.260;50.222;2022-07-17T10:18:57;32.30;35.70
68358;DHT22;55276;53.260;50.222;2022-07-17T10:21:25;32.40;35.90
68358;DHT22;55276;53.260;50.222;2022-07-17T10:26:38;32.80;36.00
68358;DHT22;55276;53.260;50.222;2022-07-17T10:31:54;33.10;35.30
68358;DHT22;55276;53.260;50.222;2022-07-17T10:37:18;33.00;35.30
68358;DHT22;55276;53.260;50.222;2022-07-17T10:42:56;32.70;35.60
68358;DHT22;55276;53.260;50.222;2022-07-17T10:45:27;32.70;35.60
68358;DHT22;55276;53.260;50.222;2022-07-17T10:53:05;33.30;34.70
68358;DHT22;55276;53.260;50.222;2022-07-17T10:55:32;33.40;35.00
68358;DHT22;55276;53.260;50.222;2022-07-17T10:57:59;33.10;35.50
68358;DHT22;55276;53.260;50.222;2022-07-17T11:00:25;32.90;36.00
68358;DHT22;55276;53.260;50.222;2022-07-17T11:02:51;33.80;35.40
68358;DHT22;55276;53.260;50.222;2022-07-17T11:05:17;35.30;33.70
68358;DHT22;55276;53.260;50.222;2022-07-17T11:10:16;34.40;33.50
68358;DHT22;55276;53.260;50.222;2022-07-17T11:12:44;33.80;34.30
68358;DHT22;55276;53.260;50.222;2022-07-17T11:15:10;33.90;34.20
68358;DHT22;55276;53.260;50.222;2022-07-17T11:17:38;34.80;33.50
68358;DHT22;55276;53.260;50.222;2022-07-17T11:20:04;36.10;31.80
68358;DHT22;55276;53.260;50.222;2022-07-17T11:22:30;36.90;30.80
68358;DHT22;55276;53.260;50.222;2022-07-17T11:24:56;37.20;30.60
68358;DHT22;55276;53.260;50.222;2022-07-17T11:27:27;36.60;31.30
68358;DHT22;55276;53.260;50.222;2022-07-17T11:29:56;36.20;31.50
68358;DHT22;55276;53.260;50.222;2022-07-17T11:32:22;35.80;31.80
68358;DHT22;55276;53.260;50.222;2022-07-17T11:34:48;36.30;32.20
68358;DHT22;55276;53.260;50.222;2022-07-17T11:37:14;39.40;29.70
68358;DHT22;55276;53.260;50.222;2022-07-17T11:39:46;40.90;28.10
68358;DHT22;55276;53.260;50.222;2022-07-17T11:42:15;41.30;26.50
68358;DHT22;55276;53.260;50.222;2022-07-17T11:44:42;40.90;26.60
68358;DHT22;55276;53.260;50.222;2022-07-17T11:47:10;40.00;26.40
68358;DHT22;55276;53.260;50.222;2022-07-17T11:49:38;38.30;28.60
68358;DHT22;55276;53.260;50.222;2022-07-17T11:54:48;37.10;29.30
68358;DHT22;55276;53.260;50.222;2022-07-17T11:57:15;36.60;29.70
68358;DHT22;55276;53.260;50.222;2022-07-17T11:59:41;36.30;29.70
68358;DHT22;55276;53.260;50.222;2022-07-17T12:02:12;36.10;30.10
68358;DHT22;55276;53.260;50.222;2022-07-17T12:04:50;36.60;29.40
68358;DHT22;55276;53.260;50.222;2022-07-17T12:07:20;38.90;26.50
68358;DHT22;55276;53.260;50.222;2022-07-17T12:09:46;39.90;25.00
68358;DHT22;55276;53.260;50.222;2022-07-17T12:12:23;42.00;23.60
68358;DHT22;55276;53.260;50.222;2022-07-17T12:14:55;44.00;21.90
68358;DHT22;55276;53.260;50.222;2022-07-17T12:17:24;45.00;20.80
68358;DHT22;55276;53.260;50.222;2022-07-17T12:19:51;45.60;20.40
68358;DHT22;55276;53.260;50.222;2022-07-17T12:22:18;46.80;19.90
68358;DHT22;55276;53.260;50.222;2022-07-17T12:24:45;47.90;19.10
68358;DHT22;55276;53.260;50.222;2022-07-17T12:27:16;48.30;19.10
68358;DHT22;55276;53.260;50.222;2022-07-17T12:29:44;50.10;18.20
68358;DHT22;55276;53.260;50.222;2022-07-17T12:32:11;49.90;18.10
68358;DHT22;55276;53.260;50.222;2022-07-17T12:34:40;49.80;18.30
68358;DHT22;55276;53.260;50.222;2022-07-17T12:37:18;50.20;17.90
68358;DHT22;55276;53.260;50.222;2022-07-17T12:39:45;50.60;17.80
68358;DHT22;55276;53.260;50.222;2022-07-17T12:42:11;51.10;17.40
68358;DHT22;55276;53.260;50.222;2022-07-17T12:44:37;49.90;17.80
68358;DHT22;55276;53.260;50.222;2022-07-17T12:47:04;46.90;19.20
68358;DHT22;55276;53.260;50.222;2022-07-17T12:49:30;45.70;20.10
68358;DHT22;55276;53.260;50.222;2022-07-17T12:51:56;45.00;20.70
68358;DHT22;55276;53.260;50.222;2022-07-17T12:54:23;45.90;20.40
68358;DHT22;55276;53.260;50.222;2022-07-17T12:56:50;47.40;19.20
68358;DHT22;55276;53.260;50.222;2022-07-17T12:59:16;48.10;18.60
68358;DHT22;55276;53.260;50.222;2022-07-17T13:01:42;46.90;19.10
68358;DHT22;55276;53.260;50.222;2022-07-17T13:04:08;44.10;21.00
68358;DHT22;55276;53.260;50.222;2022-07-17T13:06:34;43.00;22.10
68358;DHT22;55276;53.260;50.222;2022-07-17T13:09:00;44.00;21.80
68358;DHT22;55276;53.260;50.222;2022-07-17T13:11:30;46.90;20.00
68358;DHT22;55276;53.260;50.222;2022-07-17T13:13:56;49.80;18.40
68358;DHT22;55276;53.260;50.222;2022-07-17T13:16:22;51.60;17.50
68358;DHT22;55276;53.260;50.222;2022-07-17T13:18:49;53.00;16.60
68358;DHT22;55276;53.260;50.222;2022-07-17T13:21:16;53.60;16.20
68358;DHT22;55276;53.260;50.222;2022-07-17T13:23:43;52.20;16.70
68358;DHT22;55276;53.260;50.222;2022-07-17T13:26:09;48.50;18.50
68358;DHT22;55276;53.260;50.222;2022-07-17T13:28:35;45.00;20.70
68358;DHT22;55276;53.260;50.222;2022-07-17T13:31:01;42.60;22.50
68358;DHT22;55276;53.260;50.222;2022-07-17T13:33:27;40.80;24.30
68358;DHT22;55276;53.260;50.222;2022-07-17T13:35:55;38.90;26.50
68358;DHT22;55276;53.260;50.222;2022-07-17T13:38:22;37.70;28.30
68358;DHT22;55276;53.260;50.222;2022-07-17T13:40:48;36.20;30.00
68358;DHT22;55276;53.260;50.222;2022-07-17T13:43:15;35.30;31.20
68358;DHT22;55276;53.260;50.222;2022-07-17T13:45:41;34.90;31.70
68358;DHT22;55276;53.260;50.222;2022-07-17T13:48:07;34.60;32.10
68358;DHT22;55276;53.260;50.222;2022-07-17T13:50:33;34.00;33.00
68358;DHT22;55276;53.260;50.222;2022-07-17T13:53:00;33.80;33.30
68358;DHT22;55276;53.260;50.222;2022-07-17T13:55:27;33.80;33.40
68358;DHT22;55276;53.260;50.222;2022-07-17T13:57:53;34.10;33.30
68358;DHT22;55276;53.260;50.222;2022-07-17T14:00:20;34.40;32.80
68358;DHT22;55276;53.260;50.222;2022-07-17T14:02:46;34.70;32.20
68358;DHT22;55276;53.260;50.222;2022-07-17T14:05:12;34.80;32.30
68358;DHT22;55276;53.260;50.222;2022-07-17T14:07:38;35.00;32.30
68358;DHT22;55276;53.260;50.222;2022-07-17T14:10:04;35.30;32.10
68358;DHT22;55276;53.260;50.222;2022-07-17T14:12:33;35.20;32.20
68358;DHT22;55276;53.260;50.222;2022-07-17T14:15:00;35.10;32.40
68358;DHT22;55276;53.260;50.222;2022-07-17T14:17:26;35.10;32.40
68358;DHT22;55276;53.260;50.222;2022-07-17T14:19:52;34.90;32.70
68358;DHT22;55276;53.260;50.222;2022-07-17T14:22:18;34.40;33.10
68358;DHT22;55276;53.260;50.222;2022-07-17T14:24:44;34.30;33.50
68358;DHT22;55276;53.260;50.222;2022-07-17T14:27:11;34.20;33.80
68358;DHT22;55276;53.260;50.222;2022-07-17T14:29:37;34.10;34.00
68358;DHT22;55276;53.260;50.222;2022-07-17T14:32:03;34.00;34.30
68358;DHT22;55276;53.260;50.222;2022-07-17T14:34:29;33.80;34.60
68358;DHT22;55276;53.260;50.222;2022-07-17T14:36:55;33.60;34.90
68358;DHT22;55276;53.260;50.222;2022-07-17T14:39:21;33.50;35.00
68358;DHT22;55276;53.260;50.222;2022-07-17T14:41:47;33.40;34.90
68358;DHT22;55276;53.260;50.222;2022-07-17T14:44:14;34.40;33.70
68358;DHT22;55276;53.260;50.222;2022-07-17T14:46:40;35.00;32.90
68358;DHT22;55276;53.260;50.222;2022-07-17T14:49:06;34.70;33.40
68358;DHT22;55276;53.260;50.222;2022-07-17T14:51:32;34.60;33.40
68358;DHT22;55276;53.260;50.222;2022-07-17T14:53:58;35.00;32.70
68358;DHT22;55276;53.260;50.222;2022-07-17T14:56:24;34.50;33.20
68358;DHT22;55276;53.260;50.222;2022-07-17T14:58:50;33.70;34.20
68358;DHT22;55276;53.260;50.222;2022-07-17T15:01:16;32.90;35.40
68358;DHT22;55276;53.260;50.222;2022-07-17T15:03:42;32.40;35.90
68358;DHT22;55276;53.260;50.222;2022-07-17T15:06:08;32.10;36.40
68358;DHT22;55276;53.260;50.222;2022-07-17T15:08:35;31.90;36.80
68358;DHT22;55276;53.260;50.222;2022-07-17T15:11:02;31.90;37.00
68358;DHT22;55276;53.260;50.222;2022-07-17T15:13:32;32.20;36.60
68358;DHT22;55276;53.260;50.222;2022-07-17T15:15:59;32.70;36.10
68358;DHT22;55276;53.260;50.222;2022-07-17T15:18:25;33.00;35.30
68358;DHT22;55276;53.260;50.222;2022-07-17T15:20:51;32.80;35.40
68358;DHT22;55276;53.260;50.222;2022-07-17T15:23:18;32.10;36.10
68358;DHT22;55276;53.260;50.222;2022-07-17T15:25:44;31.70;37.00
68358;DHT22;55276;53.260;50.222;2022-07-17T15:28:10;32.00;36.70
68358;DHT22;55276;53.260;50.222;2022-07-17T15:30:36;34.00;34.20
68358;DHT22;55276;53.260;50.222;2022-07-17T15:33:02;36.00;31.60
68358;DHT22;55276;53.260;50.222;2022-07-17T15:35:28;36.90;30.30
68358;DHT22;55276;53.260;50.222;2022-07-17T15:37:55;35.80;31.50
68358;DHT22;55276;53.260;50.222;2022-07-17T15:40:21;34.40;33.30